sensor_id;sensor_type;location;lat;lon;timestamp;P1;durP1;ratioP1;P2;durP2;ratioP2
27533;SDS011;14973;51.460;7.008;2023-03-14T00:02:05;13.85;;;2.42;;
27533;SDS011;14973;51.460;7.008;2023-03-14T00:04:30;11.70;;;2.75;;
27533;SDS011;14973;51.460;7.008;2023-03-14T00:06:56;11.90;;;2.65;;
27533;SDS011;14973;51.460;7.008;2023-03-14T00:09:22;13.20;;;3.03;;
27533;SDS011;14973;51.460;7.008;2023-03-14T00:11:47;12.15;;;2.60;;
27533;SDS011;14973;51.460;7.008;2023-03-14T00:14:13;11.60;;;2.22;;
27533;SDS011;14973;51.460;7.008;2023-03-14T00:16:40;9.55;;;2.30;;
27533;SDS011;14973;51.460;7.008;2023-03-14T00:19:06;7.70;;;2.38;;
27533;SDS011;14973;51.460;7.008;2023-03-14T00:21:31;8.60;;;2.60;;
27533;SDS011;14973;51.460;7.008;2023-03-14T00:23:57;15.52;;;2.55;;
27533;SDS011;14973;51.460;7.008;2023-03-14T00:26:22;11.35;;;2.33;;
27533;SDS011;14973;51.460;7.008;2023-03-14T00:28:51;11.25;;;2.63;;
27533;SDS011;14973;51.460;7.008;2023-03-14T00:31:17;16.48;;;3.25;;
27533;SDS011;14973;51.460;7.008;2023-03-14T00:33:43;10.13;;;2.63;;
27533;SDS011;14973;51.460;7.008;2023-03-14T00:36:10;11.45;;;2.15;;
27533;SDS011;14973;51.460;7.008;2023-03-14T00:38:38;12.25;;;2.85;;
27533;SDS011;14973;51.460;7.008;2023-03-14T00:41:05;11.77;;;2.10;;
27533;SDS011;14973;51.460;7.008;2023-03-14T00:43:33;8.02;;;1.83;;
27533;SDS011;14973;51.460;7.008;2023-03-14T00:45:58;15.52;;;3.20;;
27533;SDS011;14973;51.460;7.008;2023-03-14T00:48:24;12.07;;;2.45;;
27533;SDS011;14973;51.460;7.008;2023-03-14T00:50:50;8.07;;;2.50;;
27533;SDS011;14973;51.460;7.008;2023-03-14T00:53:16;15.02;;;2.55;;
27533;SDS011;14973;51.460;7.008;2023-03-14T00:55:42;10.93;;;2.83;;
27533;SDS011;14973;51.460;7.008;2023-03-14T00:58:09;16.00;;;1.95;;
27533;SDS011;14973;51.460;7.008;2023-03-14T01:00:35;15.02;;;3.15;;
27533;SDS011;14973;51.460;7.008;2023-03-14T01:03:01;11.05;;;2.20;;
27533;SDS011;14973;51.460;7.008;2023-03-14T01:05:28;8.60;;;2.45;;
27533;SDS011;14973;51.460;7.008;2023-03-14T01:07:54;9.30;;;1.88;;
27533;SDS011;14973;51.460;7.008;2023-03-14T01:10:19;7.35;;;1.58;;
27533;SDS011;14973;51.460;7.008;2023-03-14T01:12:45;8.05;;;1.40;;
27533;SDS011;14973;51.460;7.008;2023-03-14T01:15:11;5.32;;;1.10;;
27533;SDS011;14973;51.460;7.008;2023-03-14T01:17:36;5.57;;;1.00;;
27533;SDS011;14973;51.460;7.008;2023-03-14T01:20:06;6.55;;;1.20;;
27533;SDS011;14973;51.460;7.008;2023-03-14T01:22:34;9.30;;;1.10;;
27533;SDS011;14973;51.460;7.008;2023-03-14T01:25:01;4.18;;;1.00;;
27533;SDS011;14973;51.460;7.008;2023-03-14T01:27:26;9.45;;;2.00;;
27533;SDS011;14973;51.460;7.008;2023-03-14T01:29:52;12.88;;;1.83;;
27533;SDS011;14973;51.460;7.008;2023-03-14T01:32:17;14.50;;;1.77;;
27533;SDS011;14973;51.460;7.008;2023-03-14T01:34:43;12.55;;;1.50;;
27533;SDS011;14973;51.460;7.008;2023-03-14T01:37:08;10.27;;;2.00;;
27533;SDS011;14973;51.460;7.008;2023-03-14T01:39:36;10.65;;;1.83;;
27533;SDS011;14973;51.460;7.008;2023-03-14T01:42:02;11.38;;;1.60;;
27533;SDS011;14973;51.460;7.008;2023-03-14T01:44:28;5.75;;;1.40;;
27533;SDS011;14973;51.460;7.008;2023-03-14T01:47:10;13.10;;;1.55;;
27533;SDS011;14973;51.460;7.008;2023-03-14T01:49:36;12.02;;;2.17;;
27533;SDS011;14973;51.460;7.008;2023-03-14T01:52:03;9.27;;;2.00;;
27533;SDS011;14973;51.460;7.008;2023-03-14T01:55:09;8.82;;;1.83;;
27533;SDS011;14973;51.460;7.008;2023-03-14T01:57:43;14.70;;;2.00;;
27533;SDS011;14973;51.460;7.008;2023-03-14T02:00:15;13.23;;;1.70;;
27533;SDS011;14973;51.460;7.008;2023-03-14T02:02:46;16.15;;;2.42;;
27533;SDS011;14973;51.460;7.008;2023-03-14T02:05:16;17.17;;;1.80;;
27533;SDS011;14973;51.460;7.008;2023-03-14T02:10:14;15.32;;;2.22;;
27533;SDS011;14973;51.460;7.008;2023-03-14T02:12:41;14.77;;;1.90;;
27533;SDS011;14973;51.460;7.008;2023-03-14T02:15:07;9.18;;;1.35;;
27533;SDS011;14973;51.460;7.008;2023-03-14T02:17:33;14.52;;;1.83;;
27533;SDS011;14973;51.460;7.008;2023-03-14T02:22:30;12.05;;;2.00;;
27533;SDS011;14973;51.460;7.008;2023-03-14T02:25:09;11.88;;;1.85;;
27533;SDS011;14973;51.460;7.008;2023-03-14T02:27:36;12.25;;;1.95;;
27533;SDS011;14973;51.460;7.008;2023-03-14T02:30:07;11.98;;;1.92;;
27533;SDS011;14973;51.460;7.008;2023-03-14T02:32:40;18.23;;;2.28;;
27533;SDS011;14973;51.460;7.008;2023-03-14T02:35:09;10.48;;;2.30;;
27533;SDS011;14973;51.460;7.008;2023-03-14T02:40:12;13.68;;;2.88;;
27533;SDS011;14973;51.460;7.008;2023-03-14T02:42:38;10.82;;;2.00;;
27533;SDS011;14973;51.460;7.008;2023-03-14T02:47:36;13.38;;;3.45;;
27533;SDS011;14973;51.460;7.008;2023-03-14T02:50:09;18.08;;;2.17;;
27533;SDS011;14973;51.460;7.008;2023-03-14T02:52:38;15.73;;;2.15;;
27533;SDS011;14973;51.460;7.008;2023-03-14T02:55:04;12.65;;;2.95;;
27533;SDS011;14973;51.460;7.008;2023-03-14T02:57:30;19.95;;;2.53;;
27533;SDS011;14973;51.460;7.008;2023-03-14T02:59:59;14.30;;;2.28;;
27533;SDS011;14973;51.460;7.008;2023-03-14T03:02:26;13.43;;;2.28;;
27533;SDS011;14973;51.460;7.008;2023-03-14T03:04:52;11.68;;;1.90;;
27533;SDS011;14973;51.460;7.008;2023-03-14T03:07:18;18.75;;;3.70;;
27533;SDS011;14973;51.460;7.008;2023-03-14T03:09:44;14.43;;;2.40;;
27533;SDS011;14973;51.460;7.008;2023-03-14T03:12:09;14.85;;;2.30;;
27533;SDS011;14973;51.460;7.008;2023-03-14T03:14:35;10.38;;;2.75;;
27533;SDS011;14973;51.460;7.008;2023-03-14T03:17:02;10.43;;;1.85;;
27533;SDS011;14973;51.460;7.008;2023-03-14T03:19:29;12.15;;;1.90;;
27533;SDS011;14973;51.460;7.008;2023-03-14T03:21:54;12.32;;;2.10;;
27533;SDS011;14973;51.460;7.008;2023-03-14T03:24:20;13.57;;;1.92;;
27533;SDS011;14973;51.460;7.008;2023-03-14T03:26:46;16.17;;;2.10;;
27533;SDS011;14973;51.460;7.008;2023-03-14T03:29:11;9.98;;;2.08;;
27533;SDS011;14973;51.460;7.008;2023-03-14T03:31:37;21.10;;;2.45;;
27533;SDS011;14973;51.460;7.008;2023-03-14T03:34:03;18.90;;;2.25;;
27533;SDS011;14973;51.460;7.008;2023-03-14T03:36:29;13.30;;;2.83;;
27533;SDS011;14973;51.460;7.008;2023-03-14T03:38:55;14.57;;;2.15;;
27533;SDS011;14973;51.460;7.008;2023-03-14T03:41:20;11.35;;;2.00;;
27533;SDS011;14973;51.460;7.008;2023-03-14T03:43:46;15.48;;;2.55;;
27533;SDS011;14973;51.460;7.008;2023-03-14T03:46:11;12.45;;;2.38;;
27533;SDS011;14973;51.460;7.008;2023-03-14T03:48:37;14.98;;;2.33;;
27533;SDS011;14973;51.460;7.008;2023-03-14T03:51:03;9.05;;;1.65;;
27533;SDS011;14973;51.460;7.008;2023-03-14T03:53:29;17.50;;;2.20;;
27533;SDS011;14973;51.460;7.008;2023-03-14T03:55:54;10.43;;;2.13;;
27533;SDS011;14973;51.460;7.008;2023-03-14T03:58:20;17.98;;;2.58;;
27533;SDS011;14973;51.460;7.008;2023-03-14T04:00:46;12.05;;;2.67;;
27533;SDS011;14973;51.460;7.008;2023-03-14T04:03:11;7.53;;;1.83;;
27533;SDS011;14973;51.460;7.008;2023-03-14T04:05:37;14.68;;;2.20;;
27533;SDS011;14973;51.460;7.008;2023-03-14T04:08:03;19.92;;;3.42;;
27533;SDS011;14973;51.460;7.008;2023-03-14T04:10:29;17.33;;;3.25;;
27533;SDS011;14973;51.460;7.008;2023-03-14T04:12:55;12.20;;;1.85;;
27533;SDS011;14973;51.460;7.008;2023-03-14T04:15:20;18.15;;;2.38;;
27533;SDS011;14973;51.460;7.008;2023-03-14T04:17:46;17.38;;;2.65;;
27533;SDS011;14973;51.460;7.008;2023-03-14T04:20:11;15.38;;;2.40;;
27533;SDS011;14973;51.460;7.008;2023-03-14T04:22:37;11.52;;;1.80;;
27533;SDS011;14973;51.460;7.008;2023-03-14T04:25:04;7.30;;;1.40;;
27533;SDS011;14973;51.460;7.008;2023-03-14T04:27:31;6.18;;;1.65;;
27533;SDS011;14973;51.460;7.008;2023-03-14T04:29:57;5.32;;;1.10;;
27533;SDS011;14973;51.460;7.008;2023-03-14T04:32:22;5.07;;;1.10;;
27533;SDS011;14973;51.460;7.008;2023-03-14T04:34:48;2.85;;;1.02;;
27533;SDS011;14973;51.460;7.008;2023-03-14T04:37:14;4.07;;;0.80;;
27533;SDS011;14973;51.460;7.008;2023-03-14T04:39:39;8.32;;;0.75;;
27533;SDS011;14973;51.460;7.008;2023-03-14T04:42:05;8.23;;;1.08;;
27533;SDS011;14973;51.460;7.008;2023-03-14T04:44:31;3.28;;;0.70;;
27533;SDS011;14973;51.460;7.008;2023-03-14T04:46:56;3.13;;;0.65;;
27533;SDS011;14973;51.460;7.008;2023-03-14T04:49:22;1.30;;;0.60;;
27533;SDS011;14973;51.460;7.008;2023-03-14T04:51:48;1.60;;;0.60;;
27533;SDS011;14973;51.460;7.008;2023-03-14T04:54:15;4.72;;;0.80;;
27533;SDS011;14973;51.460;7.008;2023-03-14T04:56:41;4.57;;;0.80;;
27533;SDS011;14973;51.460;7.008;2023-03-14T04:59:07;4.45;;;0.60;;
27533;SDS011;14973;51.460;7.008;2023-03-14T05:01:33;2.80;;;0.70;;
27533;SDS011;14973;51.460;7.008;2023-03-14T05:03:59;5.93;;;0.77;;
27533;SDS011;14973;51.460;7.008;2023-03-14T05:06:25;3.60;;;1.13;;
27533;SDS011;14973;51.460;7.008;2023-03-14T05:08:50;3.80;;;1.00;;
27533;SDS011;14973;51.460;7.008;2023-03-14T05:11:16;3.63;;;1.20;;
27533;SDS011;14973;51.460;7.008;2023-03-14T05:13:43;6.30;;;0.80;;
27533;SDS011;14973;51.460;7.008;2023-03-14T05:16:09;7.43;;;0.90;;
27533;SDS011;14973;51.460;7.008;2023-03-14T05:18:36;7.20;;;1.00;;
27533;SDS011;14973;51.460;7.008;2023-03-14T05:21:02;5.82;;;1.00;;
27533;SDS011;14973;51.460;7.008;2023-03-14T05:23:28;3.90;;;0.73;;
27533;SDS011;14973;51.460;7.008;2023-03-14T05:25:54;2.03;;;0.80;;
27533;SDS011;14973;51.460;7.008;2023-03-14T05:28:20;3.25;;;0.60;;
27533;SDS011;14973;51.460;7.008;2023-03-14T05:30:46;2.75;;;0.60;;
27533;SDS011;14973;51.460;7.008;2023-03-14T05:33:12;1.67;;;1.15;;
27533;SDS011;14973;51.460;7.008;2023-03-14T05:35:38;3.78;;;0.80;;
27533;SDS011;14973;51.460;7.008;2023-03-14T05:38:04;2.05;;;0.93;;
27533;SDS011;14973;51.460;7.008;2023-03-14T05:40:29;3.17;;;0.70;;
27533;SDS011;14973;51.460;7.008;2023-03-14T05:42:55;3.47;;;0.93;;
27533;SDS011;14973;51.460;7.008;2023-03-14T05:45:20;1.20;;;1.00;;
27533;SDS011;14973;51.460;7.008;2023-03-14T05:47:46;8.27;;;1.35;;
27533;SDS011;14973;51.460;7.008;2023-03-14T05:50:12;1.88;;;1.17;;
27533;SDS011;14973;51.460;7.008;2023-03-14T05:52:37;7.63;;;1.98;;
27533;SDS011;14973;51.460;7.008;2023-03-14T05:55:03;3.90;;;2.40;;
27533;SDS011;14973;51.460;7.008;2023-03-14T05:57:29;6.45;;;3.30;;
27533;SDS011;14973;51.460;7.008;2023-03-14T05:59:55;8.25;;;3.28;;
27533;SDS011;14973;51.460;7.008;2023-03-14T06:02:21;8.45;;;3.88;;
27533;SDS011;14973;51.460;7.008;2023-03-14T06:04:46;11.70;;;5.03;;
27533;SDS011;14973;51.460;7.008;2023-03-14T06:07:12;9.00;;;3.95;;
27533;SDS011;14973;51.460;7.008;2023-03-14T06:09:37;15.73;;;5.18;;
27533;SDS011;14973;51.460;7.008;2023-03-14T06:12:04;12.63;;;4.80;;
27533;SDS011;14973;51.460;7.008;2023-03-14T06:14:30;15.18;;;4.82;;
27533;SDS011;14973;51.460;7.008;2023-03-14T06:16:56;10.93;;;4.55;;
27533;SDS011;14973;51.460;7.008;2023-03-14T06:19:23;13.10;;;4.70;;
27533;SDS011;14973;51.460;7.008;2023-03-14T06:21:50;16.90;;;5.18;;
27533;SDS011;14973;51.460;7.008;2023-03-14T06:24:15;14.18;;;4.22;;
27533;SDS011;14973;51.460;7.008;2023-03-14T06:26:41;7.55;;;3.28;;
27533;SDS011;14973;51.460;7.008;2023-03-14T06:29:07;10.60;;;3.97;;
27533;SDS011;14973;51.460;7.008;2023-03-14T06:31:32;16.67;;;3.67;;
27533;SDS011;14973;51.460;7.008;2023-03-14T06:33:58;11.15;;;3.22;;
27533;SDS011;14973;51.460;7.008;2023-03-14T06:36:24;8.20;;;2.97;;
27533;SDS011;14973;51.460;7.008;2023-03-14T06:38:49;8.07;;;3.08;;
27533;SDS011;14973;51.460;7.008;2023-03-14T06:41:15;6.80;;;2.13;;
27533;SDS011;14973;51.460;7.008;2023-03-14T06:43:41;10.10;;;2.63;;
27533;SDS011;14973;51.460;7.008;2023-03-14T06:46:06;5.50;;;2.03;;
27533;SDS011;14973;51.460;7.008;2023-03-14T06:48:32;7.22;;;1.80;;
27533;SDS011;14973;51.460;7.008;2023-03-14T06:50:58;4.18;;;1.30;;
27533;SDS011;14973;51.460;7.008;2023-03-14T06:53:23;3.65;;;1.55;;
27533;SDS011;14973;51.460;7.008;2023-03-14T06:55:49;6.95;;;1.13;;
27533;SDS011;14973;51.460;7.008;2023-03-14T06:58:15;8.13;;;1.25;;
27533;SDS011;14973;51.460;7.008;2023-03-14T07:00:40;3.05;;;0.80;;
27533;SDS011;14973;51.460;7.008;2023-03-14T07:03:06;9.13;;;1.88;;
27533;SDS011;14973;51.460;7.008;2023-03-14T07:05:32;1.92;;;0.55;;
27533;SDS011;14973;51.460;7.008;2023-03-14T07:07:57;3.80;;;0.68;;
27533;SDS011;14973;51.460;7.008;2023-03-14T07:10:23;5.28;;;0.73;;
27533;SDS011;14973;51.460;7.008;2023-03-14T07:12:49;1.83;;;0.70;;
27533;SDS011;14973;51.460;7.008;2023-03-14T07:15:14;1.58;;;0.50;;
27533;SDS011;14973;51.460;7.008;2023-03-14T07:17:40;2.22;;;0.60;;
27533;SDS011;14973;51.460;7.008;2023-03-14T07:20:06;3.53;;;1.20;;
27533;SDS011;14973;51.460;7.008;2023-03-14T07:22:32;5.95;;;0.60;;
27533;SDS011;14973;51.460;7.008;2023-03-14T07:24:58;4.47;;;1.00;;
27533;SDS011;14973;51.460;7.008;2023-03-14T07:27:23;3.47;;;0.80;;
27533;SDS011;14973;51.460;7.008;2023-03-14T07:29:49;5.72;;;1.15;;
27533;SDS011;14973;51.460;7.008;2023-03-14T07:32:15;5.28;;;1.05;;
27533;SDS011;14973;51.460;7.008;2023-03-14T07:34:41;9.73;;;2.03;;
27533;SDS011;14973;51.460;7.008;2023-03-14T07:37:07;4.90;;;1.48;;
27533;SDS011;14973;51.460;7.008;2023-03-14T07:39:33;1.80;;;0.85;;
27533;SDS011;14973;51.460;7.008;2023-03-14T07:41:59;3.35;;;1.33;;
27533;SDS011;14973;51.460;7.008;2023-03-14T07:44:25;8.30;;;3.15;;
27533;SDS011;14973;51.460;7.008;2023-03-14T07:46:51;5.97;;;1.60;;
27533;SDS011;14973;51.460;7.008;2023-03-14T07:49:16;3.10;;;1.15;;
27533;SDS011;14973;51.460;7.008;2023-03-14T07:51:42;2.92;;;1.00;;
27533;SDS011;14973;51.460;7.008;2023-03-14T07:54:09;4.95;;;1.10;;
27533;SDS011;14973;51.460;7.008;2023-03-14T07:56:35;2.78;;;1.42;;
27533;SDS011;14973;51.460;7.008;2023-03-14T07:59:00;5.70;;;1.52;;
27533;SDS011;14973;51.460;7.008;2023-03-14T08:01:26;3.33;;;1.50;;
27533;SDS011;14973;51.460;7.008;2023-03-14T08:03:52;3.33;;;1.25;;
27533;SDS011;14973;51.460;7.008;2023-03-14T08:06:17;3.58;;;1.20;;
27533;SDS011;14973;51.460;7.008;2023-03-14T08:08:43;3.65;;;1.35;;
27533;SDS011;14973;51.460;7.008;2023-03-14T08:11:09;1.75;;;1.50;;
27533;SDS011;14973;51.460;7.008;2023-03-14T08:13:35;5.18;;;1.25;;
27533;SDS011;14973;51.460;7.008;2023-03-14T08:16:01;4.95;;;2.00;;
27533;SDS011;14973;51.460;7.008;2023-03-14T08:18:27;3.40;;;1.30;;
27533;SDS011;14973;51.460;7.008;2023-03-14T08:20:53;4.60;;;1.50;;
27533;SDS011;14973;51.460;7.008;2023-03-14T08:23:19;3.88;;;1.50;;
27533;SDS011;14973;51.460;7.008;2023-03-14T08:25:44;7.47;;;3.58;;
27533;SDS011;14973;51.460;7.008;2023-03-14T08:28:10;5.40;;;3.20;;
27533;SDS011;14973;51.460;7.008;2023-03-14T08:30:36;5.40;;;1.60;;
27533;SDS011;14973;51.460;7.008;2023-03-14T08:33:02;3.72;;;1.42;;
27533;SDS011;14973;51.460;7.008;2023-03-14T08:35:27;9.13;;;4.90;;
27533;SDS011;14973;51.460;7.008;2023-03-14T08:37:53;2.20;;;1.40;;
27533;SDS011;14973;51.460;7.008;2023-03-14T08:40:19;2.30;;;1.10;;
27533;SDS011;14973;51.460;7.008;2023-03-14T08:42:45;1.27;;;1.10;;
27533;SDS011;14973;51.460;7.008;2023-03-14T08:45:11;4.25;;;1.40;;
27533;SDS011;14973;51.460;7.008;2023-03-14T08:47:39;3.53;;;1.25;;
27533;SDS011;14973;51.460;7.008;2023-03-14T08:50:05;5.05;;;1.30;;
27533;SDS011;14973;51.460;7.008;2023-03-14T08:52:32;1.30;;;1.00;;
27533;SDS011;14973;51.460;7.008;2023-03-14T08:54:58;2.90;;;1.42;;
27533;SDS011;14973;51.460;7.008;2023-03-14T08:57:23;2.65;;;1.25;;
27533;SDS011;14973;51.460;7.008;2023-03-14T08:59:53;2.58;;;1.50;;
27533;SDS011;14973;51.460;7.008;2023-03-14T09:02:23;3.90;;;1.60;;
27533;SDS011;14973;51.460;7.008;2023-03-14T09:04:49;8.88;;;5.00;;
27533;SDS011;14973;51.460;7.008;2023-03-14T09:07:16;3.88;;;2.22;;
27533;SDS011;14973;51.460;7.008;2023-03-14T09:09:42;4.60;;;2.40;;
27533;SDS011;14973;51.460;7.008;2023-03-14T09:12:08;4.75;;;3.10;;
27533;SDS011;14973;51.460;7.008;2023-03-14T09:14:34;5.80;;;3.42;;
27533;SDS011;14973;51.460;7.008;2023-03-14T09:17:01;7.65;;;4.43;;
27533;SDS011;14973;51.460;7.008;2023-03-14T09:19:27;7.20;;;3.65;;
27533;SDS011;14973;51.460;7.008;2023-03-14T09:21:53;10.40;;;3.47;;
27533;SDS011;14973;51.460;7.008;2023-03-14T09:24:20;11.85;;;2.92;;
27533;SDS011;14973;51.460;7.008;2023-03-14T09:26:46;2.05;;;1.15;;
27533;SDS011;14973;51.460;7.008;2023-03-14T09:29:11;2.15;;;1.20;;
27533;SDS011;14973;51.460;7.008;2023-03-14T09:31:37;3.88;;;1.40;;
27533;SDS011;14973;51.460;7.008;2023-03-14T09:34:03;3.17;;;1.15;;
27533;SDS011;14973;51.460;7.008;2023-03-14T09:36:29;5.45;;;1.13;;
27533;SDS011;14973;51.460;7.008;2023-03-14T09:38:56;4.45;;;1.17;;
27533;SDS011;14973;51.460;7.008;2023-03-14T09:41:26;7.03;;;3.75;;
27533;SDS011;14973;51.460;7.008;2023-03-14T09:44:13;6.15;;;3.20;;
27533;SDS011;14973;51.460;7.008;2023-03-14T09:46:51;12.38;;;2.60;;
27533;SDS011;14973;51.460;7.008;2023-03-14T09:49:20;6.55;;;3.13;;
27533;SDS011;14973;51.460;7.008;2023-03-14T09:51:51;7.93;;;3.35;;
27533;SDS011;14973;51.460;7.008;2023-03-14T09:54:34;6.53;;;3.08;;
27533;SDS011;14973;51.460;7.008;2023-03-14T09:57:08;6.57;;;3.20;;
27533;SDS011;14973;51.460;7.008;2023-03-14T09:59:41;5.22;;;2.50;;
27533;SDS011;14973;51.460;7.008;2023-03-14T10:02:21;5.40;;;2.60;;
27533;SDS011;14973;51.460;7.008;2023-03-14T10:04:50;7.43;;;2.10;;
27533;SDS011;14973;51.460;7.008;2023-03-14T10:07:18;2.63;;;1.63;;
27533;SDS011;14973;51.460;7.008;2023-03-14T10:09:49;4.50;;;1.60;;
27533;SDS011;14973;51.460;7.008;2023-03-14T10:12:16;6.20;;;1.50;;
27533;SDS011;14973;51.460;7.008;2023-03-14T10:14:50;4.22;;;1.70;;
27533;SDS011;14973;51.460;7.008;2023-03-14T10:17:19;2.90;;;1.38;;
27533;SDS011;14973;51.460;7.008;2023-03-14T10:19:55;12.25;;;2.60;;
27533;SDS011;14973;51.460;7.008;2023-03-14T10:22:24;8.48;;;1.70;;
27533;SDS011;14973;51.460;7.008;2023-03-14T10:24:55;1.92;;;1.15;;
27533;SDS011;14973;51.460;7.008;2023-03-14T10:27:29;4.03;;;1.95;;
27533;SDS011;14973;51.460;7.008;2023-03-14T10:30:00;3.50;;;1.80;;
27533;SDS011;14973;51.460;7.008;2023-03-14T10:32:28;7.75;;;2.17;;
27533;SDS011;14973;51.460;7.008;2023-03-14T10:35:18;4.57;;;2.25;;
27533;SDS011;14973;51.460;7.008;2023-03-14T10:40:28;6.40;;;2.08;;
27533;SDS011;14973;51.460;7.008;2023-03-14T10:42:59;7.20;;;1.10;;
27533;SDS011;14973;51.460;7.008;2023-03-14T10:45:36;5.75;;;3.42;;
27533;SDS011;14973;51.460;7.008;2023-03-14T10:53:42;5.10;;;1.90;;
27533;SDS011;14973;51.460;7.008;2023-03-14T10:56:33;3.97;;;1.08;;
27533;SDS011;14973;51.460;7.008;2023-03-14T10:59:01;6.38;;;1.30;;
27533;SDS011;14973;51.460;7.008;2023-03-14T11:09:56;8.60;;;1.58;;
27533;SDS011;14973;51.460;7.008;2023-03-14T11:15:19;4.70;;;0.90;;
27533;SDS011;14973;51.460;7.008;2023-03-14T11:21:05;6.00;;;1.67;;
27533;SDS011;14973;51.460;7.008;2023-03-14T11:28:58;3.97;;;1.00;;
27533;SDS011;14973;51.460;7.008;2023-03-14T11:31:38;5.93;;;1.40;;
27533;SDS011;14973;51.460;7.008;2023-03-14T11:37:12;4.80;;;0.93;;
27533;SDS011;14973;51.460;7.008;2023-03-14T11:40:08;3.75;;;0.90;;
27533;SDS011;14973;51.460;7.008;2023-03-14T11:42:38;4.07;;;0.82;;
27533;SDS011;14973;51.460;7.008;2023-03-14T11:45:15;6.53;;;1.42;;
27533;SDS011;14973;51.460;7.008;2023-03-14T11:47:43;1.50;;;0.85;;
27533;SDS011;14973;51.460;7.008;2023-03-14T11:50:15;3.67;;;1.10;;
27533;SDS011;14973;51.460;7.008;2023-03-14T11:57:55;3.95;;;1.10;;
27533;SDS011;14973;51.460;7.008;2023-03-14T12:00:26;4.18;;;1.50;;
27533;SDS011;14973;51.460;7.008;2023-03-14T12:10:51;7.88;;;1.73;;
27533;SDS011;14973;51.460;7.008;2023-03-14T12:13:19;6.35;;;1.60;;
27533;SDS011;14973;51.460;7.008;2023-03-14T12:15:47;6.25;;;1.40;;
27533;SDS011;14973;51.460;7.008;2023-03-14T12:18:28;7.95;;;1.63;;
27533;SDS011;14973;51.460;7.008;2023-03-14T12:21:00;6.72;;;1.25;;
27533;SDS011;14973;51.460;7.008;2023-03-14T12:23:28;6.15;;;1.33;;
27533;SDS011;14973;51.460;7.008;2023-03-14T12:26:06;4.03;;;1.20;;
27533;SDS011;14973;51.460;7.008;2023-03-14T12:28:33;11.70;;;1.45;;
27533;SDS011;14973;51.460;7.008;2023-03-14T12:31:34;8.95;;;1.75;;
27533;SDS011;14973;51.460;7.008;2023-03-14T12:36:56;6.78;;;1.48;;
27533;SDS011;14973;51.460;7.008;2023-03-14T12:48:01;16.98;;;2.85;;
27533;SDS011;14973;51.460;7.008;2023-03-14T12:56:22;14.02;;;1.67;;
27533;SDS011;14973;51.460;7.008;2023-03-14T12:59:10;8.85;;;1.30;;
27533;SDS011;14973;51.460;7.008;2023-03-14T13:01:57;30.98;;;2.80;;
27533;SDS011;14973;51.460;7.008;2023-03-14T13:04:46;28.83;;;2.85;;
27533;SDS011;14973;51.460;7.008;2023-03-14T13:10:27;22.52;;;2.58;;
27533;SDS011;14973;51.460;7.008;2023-03-14T13:15:32;20.75;;;3.78;;
27533;SDS011;14973;51.460;7.008;2023-03-14T13:18:19;24.55;;;3.17;;
27533;SDS011;14973;51.460;7.008;2023-03-14T13:20:54;22.60;;;3.83;;
27533;SDS011;14973;51.460;7.008;2023-03-14T13:23:31;23.27;;;3.30;;
27533;SDS011;14973;51.460;7.008;2023-03-14T13:25:59;25.52;;;3.10;;
27533;SDS011;14973;51.460;7.008;2023-03-14T13:28:25;29.15;;;3.13;;
27533;SDS011;14973;51.460;7.008;2023-03-14T13:30:59;24.35;;;3.53;;
27533;SDS011;14973;51.460;7.008;2023-03-14T13:33:27;17.95;;;2.70;;
27533;SDS011;14973;51.460;7.008;2023-03-14T13:35:57;12.00;;;3.08;;
27533;SDS011;14973;51.460;7.008;2023-03-14T13:38:29;28.30;;;4.00;;
27533;SDS011;14973;51.460;7.008;2023-03-14T13:40:57;26.67;;;4.18;;
27533;SDS011;14973;51.460;7.008;2023-03-14T13:48:50;39.88;;;4.30;;
27533;SDS011;14973;51.460;7.008;2023-03-14T13:51:20;41.08;;;5.20;;
27533;SDS011;14973;51.460;7.008;2023-03-14T13:53:47;23.55;;;4.00;;
27533;SDS011;14973;51.460;7.008;2023-03-14T13:56:15;36.83;;;3.70;;
27533;SDS011;14973;51.460;7.008;2023-03-14T13:58:41;31.40;;;5.75;;
27533;SDS011;14973;51.460;7.008;2023-03-14T14:01:12;18.90;;;3.65;;
27533;SDS011;14973;51.460;7.008;2023-03-14T14:03:53;29.55;;;3.50;;
27533;SDS011;14973;51.460;7.008;2023-03-14T14:08:49;25.73;;;4.00;;
27533;SDS011;14973;51.460;7.008;2023-03-14T14:11:20;29.27;;;4.03;;
27533;SDS011;14973;51.460;7.008;2023-03-14T14:14:01;24.63;;;4.82;;
27533;SDS011;14973;51.460;7.008;2023-03-14T14:16:28;27.85;;;4.78;;
27533;SDS011;14973;51.460;7.008;2023-03-14T14:18:54;28.67;;;4.65;;
27533;SDS011;14973;51.460;7.008;2023-03-14T14:21:22;22.85;;;3.58;;
27533;SDS011;14973;51.460;7.008;2023-03-14T14:23:49;25.17;;;2.90;;
27533;SDS011;14973;51.460;7.008;2023-03-14T14:26:16;14.38;;;2.33;;
27533;SDS011;14973;51.460;7.008;2023-03-14T14:28:43;17.77;;;2.95;;
27533;SDS011;14973;51.460;7.008;2023-03-14T14:33:56;13.55;;;2.17;;
27533;SDS011;14973;51.460;7.008;2023-03-14T14:36:28;17.58;;;2.38;;
27533;SDS011;14973;51.460;7.008;2023-03-14T14:39:18;22.45;;;2.30;;
27533;SDS011;14973;51.460;7.008;2023-03-14T14:41:45;17.02;;;2.17;;
27533;SDS011;14973;51.460;7.008;2023-03-14T14:44:16;10.25;;;2.03;;
27533;SDS011;14973;51.460;7.008;2023-03-14T14:46:46;13.95;;;1.95;;
27533;SDS011;14973;51.460;7.008;2023-03-14T14:49:13;12.93;;;2.20;;
27533;SDS011;14973;51.460;7.008;2023-03-14T14:51:47;9.57;;;2.40;;
27533;SDS011;14973;51.460;7.008;2023-03-14T14:54:15;20.60;;;2.47;;
27533;SDS011;14973;51.460;7.008;2023-03-14T14:57:01;17.50;;;2.33;;
27533;SDS011;14973;51.460;7.008;2023-03-14T14:59:29;16.33;;;2.90;;
27533;SDS011;14973;51.460;7.008;2023-03-14T15:01:59;14.63;;;2.80;;
27533;SDS011;14973;51.460;7.008;2023-03-14T15:04:26;14.25;;;2.13;;
27533;SDS011;14973;51.460;7.008;2023-03-14T15:06:54;17.30;;;2.03;;
27533;SDS011;14973;51.460;7.008;2023-03-14T15:09:20;16.52;;;2.88;;
27533;SDS011;14973;51.460;7.008;2023-03-14T15:11:47;23.05;;;2.67;;
27533;SDS011;14973;51.460;7.008;2023-03-14T15:14:13;17.13;;;2.08;;
27533;SDS011;14973;51.460;7.008;2023-03-14T15:16:39;14.38;;;2.28;;
27533;SDS011;14973;51.460;7.008;2023-03-14T15:19:13;18.75;;;2.20;;
27533;SDS011;14973;51.460;7.008;2023-03-14T15:21:48;14.65;;;2.67;;
27533;SDS011;14973;51.460;7.008;2023-03-14T15:24:14;12.35;;;2.15;;
27533;SDS011;14973;51.460;7.008;2023-03-14T15:26:40;10.93;;;1.73;;
27533;SDS011;14973;51.460;7.008;2023-03-14T15:29:06;17.00;;;2.17;;
27533;SDS011;14973;51.460;7.008;2023-03-14T15:31:34;8.18;;;1.75;;
27533;SDS011;14973;51.460;7.008;2023-03-14T15:34:00;6.85;;;1.70;;
27533;SDS011;14973;51.460;7.008;2023-03-14T15:36:28;7.97;;;1.58;;
27533;SDS011;14973;51.460;7.008;2023-03-14T15:38:58;16.20;;;1.50;;
27533;SDS011;14973;51.460;7.008;2023-03-14T15:41:25;11.10;;;1.42;;
27533;SDS011;14973;51.460;7.008;2023-03-14T15:43:52;12.18;;;1.58;;
27533;SDS011;14973;51.460;7.008;2023-03-14T15:46:19;5.03;;;1.33;;
27533;SDS011;14973;51.460;7.008;2023-03-14T15:48:46;11.80;;;3.00;;
27533;SDS011;14973;51.460;7.008;2023-03-14T15:51:13;15.52;;;2.13;;
27533;SDS011;14973;51.460;7.008;2023-03-14T15:53:39;16.33;;;1.65;;
27533;SDS011;14973;51.460;7.008;2023-03-14T15:56:06;12.93;;;1.92;;
27533;SDS011;14973;51.460;7.008;2023-03-14T15:58:36;13.32;;;2.13;;
27533;SDS011;14973;51.460;7.008;2023-03-14T16:01:05;20.50;;;3.17;;
27533;SDS011;14973;51.460;7.008;2023-03-14T16:03:34;8.93;;;2.00;;
27533;SDS011;14973;51.460;7.008;2023-03-14T16:06:00;18.00;;;2.53;;
27533;SDS011;14973;51.460;7.008;2023-03-14T16:08:26;14.52;;;2.00;;
27533;SDS011;14973;51.460;7.008;2023-03-14T16:10:53;7.07;;;1.70;;
27533;SDS011;14973;51.460;7.008;2023-03-14T16:13:19;13.23;;;1.88;;
27533;SDS011;14973;51.460;7.008;2023-03-14T16:15:58;16.08;;;1.90;;